createdAt,value
2022-09-15T00:00:31.476Z,72.68
2022-09-15T00:03:20.790Z,75.20
2022-09-15T00:06:12.372Z,75.75
2022-09-15T00:09:00.774Z,74.97
2022-09-15T00:12:00.117Z,74.90
2022-09-15T00:14:48.432Z,73.93
2022-09-15T00:17:50.699Z,74.20
2022-09-15T00:20:42.049Z,73.82
2022-09-15T00:23:30.326Z,73.72
2022-09-15T00:26:27.478Z,72.60
2022-09-15T00:29:17.153Z,74.45
2022-09-15T00:32:11.545Z,74.22
2022-09-15T00:34:59.925Z,74.38
2022-09-15T00:37:48.247Z,73.95
2022-09-15T00:40:45.489Z,74.85
2022-09-15T00:43:46.845Z,74.45
2022-09-15T00:46:39.622Z,76.03
2022-09-15T00:49:37.574Z,76.22
2022-09-15T00:52:33.428Z,76.20
2022-09-15T00:55:27.632Z,77.53
2022-09-15T00:58:19.855Z,78.47
2022-09-15T01:01:09.819Z,80.70
2022-09-15T01:04:08.891Z,82.90
2022-09-15T01:07:00.677Z,80.68
2022-09-15T01:09:53.851Z,80.25
2022-09-15T01:12:42.911Z,76.63
2022-09-15T01:15:48.115Z,78.00
2022-09-15T01:18:43.937Z,78.68
2022-09-15T01:21:42.874Z,79.20
2022-09-15T01:24:55.381Z,77.70
2022-09-15T01:28:37.309Z,78.13
2022-09-15T01:31:31.441Z,84.22
2022-09-15T01:34:21.229Z,84.07
2022-09-15T01:37:15.898Z,82.65
2022-09-15T01:40:05.146Z,87.50
2022-09-15T01:43:03.211Z,85.47
2022-09-15T01:45:53.121Z,88.07
2022-09-15T01:48:44.549Z,88.85
2022-09-15T01:51:35.443Z,87.28
2022-09-15T01:54:33.852Z,85.90
2022-09-15T01:57:23.095Z,86.45
2022-09-15T02:00:15.305Z,85.10
2022-09-15T02:03:11.815Z,89.93
2022-09-15T02:06:07.387Z,88.80
2022-09-15T02:09:01.523Z,86.15
2022-09-15T02:11:55.450Z,94.68
2022-09-15T02:14:55.471Z,90.78
2022-09-15T02:17:50.662Z,96.40
2022-09-15T02:20:45.247Z,96.28
2022-09-15T02:23:40.176Z,116.50
2022-09-15T02:26:30.482Z,97.28
2022-09-15T02:29:30.152Z,97.68
2022-09-15T02:32:23.265Z,95.05
2022-09-15T02:35:13.387Z,95.22
2022-09-15T02:38:04.379Z,95.40
2022-09-15T02:40:54.294Z,95.10
2022-09-15T02:43:50.336Z,92.35
2022-09-15T02:46:39.279Z,94.00
2022-09-15T02:49:36.587Z,90.38
2022-09-15T02:52:25.497Z,88.38
2022-09-15T02:55:23.278Z,88.97
2022-09-15T02:58:12.941Z,85.80
2022-09-15T03:01:11.188Z,83.20
2022-09-15T03:04:00.297Z,83.28
2022-09-15T03:06:57.436Z,81.97
2022-09-15T03:09:46.207Z,83.57
2022-09-15T03:12:45.608Z,83.45
2022-09-15T03:15:35.633Z,81.07
2022-09-15T03:18:32.146Z,80.05
2022-09-15T03:21:20.727Z,82.75
2022-09-15T03:24:19.343Z,80.28
2022-09-15T03:27:07.606Z,80.78
2022-09-15T03:30:05.834Z,81.47
2022-09-15T03:32:55.512Z,81.30
2022-09-15T03:35:53.375Z,78.78
2022-09-15T03:38:41.942Z,83.20
2022-09-15T03:41:30.346Z,82.07
2022-09-15T03:44:27.894Z,83.03
2022-09-15T03:47:16.295Z,84.85
2022-09-15T03:50:15.010Z,86.20
2022-09-15T03:53:03.307Z,86.88
2022-09-15T03:56:10.766Z,87.47
2022-09-15T03:58:59.182Z,87.80
2022-09-15T04:01:56.368Z,88.65
2022-09-15T04:04:44.707Z,86.65
2022-09-15T04:07:37.629Z,87.53
2022-09-15T04:10:26.056Z,86.00
2022-09-15T04:13:17.432Z,87.40
2022-09-15T04:16:08.231Z,88.38
2022-09-15T04:18:57.604Z,88.22
2022-09-15T04:21:47.521Z,89.53
2022-09-15T04:24:37.369Z,88.35
2022-09-15T04:27:34.454Z,90.05
2022-09-15T04:30:23.009Z,89.18
2022-09-15T04:33:11.352Z,88.90
2022-09-15T04:36:00.367Z,89.05
2022-09-15T04:38:49.048Z,89.00
2022-09-15T04:41:39.383Z,88.88
2022-09-15T04:44:36.775Z,89.32
2022-09-15T04:47:25.122Z,88.28
2022-09-15T04:50:13.571Z,88.80
2022-09-15T04:53:01.861Z,86.57
2022-09-15T04:56:03.465Z,86.90
2022-09-15T04:58:57.274Z,86.07
2022-09-15T05:01:48.718Z,85.32
2022-09-15T05:04:43.067Z,85.35
2022-09-15T05:07:31.539Z,85.28
2022-09-15T05:10:19.886Z,84.70
2022-09-15T05:13:08.146Z,84.25
2022-09-15T05:15:57.976Z,82.38
2022-09-15T05:18:57.613Z,80.93
2022-09-15T05:21:45.891Z,81.85
2022-09-15T05:24:43.372Z,81.50
2022-09-15T05:27:32.831Z,79.70
2022-09-15T05:30:38.037Z,78.95
2022-09-15T05:33:29.361Z,78.53
2022-09-15T05:36:27.085Z,77.35
2022-09-15T05:39:15.522Z,77.90
2022-09-15T05:42:04.079Z,75.53
2022-09-15T05:44:58.518Z,73.53
2022-09-15T05:47:46.917Z,73.18
2022-09-15T05:50:50.397Z,73.20
2022-09-15T05:53:38.856Z,71.30
2022-09-15T05:56:33.244Z,70.30
2022-09-15T05:59:21.538Z,68.95
2022-09-15T06:02:16.121Z,69.32
2022-09-15T06:05:04.536Z,68.30
2022-09-15T06:07:55.150Z,66.70
2022-09-15T06:10:43.772Z,65.80
2022-09-15T06:13:32.284Z,65.60
2022-09-15T06:16:23.371Z,64.18
2022-09-15T06:19:11.708Z,63.35
2022-09-15T06:22:08.894Z,62.45
2022-09-15T06:24:58.537Z,61.35
2022-09-15T06:27:55.602Z,59.75
2022-09-15T06:30:48.966Z,58.92
2022-09-15T06:33:37.393Z,60.35
2022-09-15T06:36:31.154Z,58.63
2022-09-15T06:39:19.440Z,58.63
2022-09-15T06:42:10.341Z,56.80
2022-09-15T06:45:04.414Z,57.35
2022-09-15T06:48:23.595Z,58.63
2022-09-15T06:51:12.758Z,61.13
2022-09-15T06:54:00.966Z,60.90
2022-09-15T06:56:55.481Z,61.55
2022-09-15T06:59:45.156Z,61.20
2022-09-15T07:02:39.655Z,61.05
2022-09-15T07:05:28.527Z,61.03
2022-09-15T07:08:22.987Z,60.80
2022-09-15T07:11:11.664Z,58.42
2022-09-15T07:14:06.229Z,58.05
2022-09-15T07:16:55.948Z,58.63
2022-09-15T07:19:45.399Z,56.83
2022-09-15T07:22:33.797Z,56.97
2022-09-15T07:25:22.290Z,49.00
2022-09-15T07:28:11.160Z,39.95
2022-09-15T07:30:59.493Z,33.40
2022-09-15T07:33:49.811Z,32.33
2022-09-15T07:36:38.553Z,31.23
2022-09-15T07:39:26.967Z,32.42
2022-09-15T07:42:15.591Z,34.35
2022-09-15T07:45:05.593Z,37.92
2022-09-15T07:47:54.611Z,40.72
2022-09-15T07:50:47.913Z,43.78
2022-09-15T07:53:36.383Z,47.90
2022-09-15T07:56:25.274Z,51.63
2022-09-15T07:59:13.696Z,55.97
2022-09-15T08:02:02.083Z,58.25
2022-09-15T08:04:58.076Z,60.00
2022-09-15T08:07:47.862Z,62.10
2022-09-15T08:10:39.161Z,64.00
2022-09-15T08:13:27.559Z,66.97
2022-09-15T08:16:18.095Z,68.63
2022-09-15T08:19:06.617Z,71.15
2022-09-15T08:22:01.809Z,70.32
2022-09-15T08:24:51.505Z,69.75
2022-09-15T08:27:39.990Z,68.80
2022-09-15T08:30:29.058Z,68.45
2022-09-15T08:33:17.461Z,85.85
2022-09-15T08:36:08.227Z,65.55
2022-09-15T08:38:57.021Z,65.03
2022-09-15T08:41:49.347Z,66.07
2022-09-15T08:44:44.369Z,66.20
2022-09-15T08:47:37.352Z,65.32
2022-09-15T08:50:30.034Z,61.65
2022-09-15T08:53:23.711Z,61.70
2022-09-15T08:56:17.153Z,60.28
2022-09-15T08:59:06.889Z,58.80
2022-09-15T09:02:29.598Z,56.60
2022-09-15T09:05:37.074Z,51.13
2022-09-15T09:08:42.034Z,46.22
2022-09-15T09:11:43.853Z,43.75
2022-09-15T09:14:44.831Z,38.83
2022-09-15T09:17:47.230Z,35.08
2022-09-15T09:20:50.041Z,32.58
2022-09-15T09:23:44.286Z,32.28
2022-09-15T09:26:35.866Z,30.92
2022-09-15T09:29:31.862Z,28.20
2022-09-15T09:32:24.673Z,28.15
2022-09-15T09:35:21.704Z,28.08
2022-09-15T09:38:11.234Z,28.75
2022-09-15T09:41:02.576Z,27.38
2022-09-15T09:43:53.459Z,26.27
2022-09-15T09:46:42.480Z,24.98
2022-09-15T09:49:44.377Z,23.92
2022-09-15T09:52:37.336Z,22.35
2022-09-15T09:55:27.929Z,21.65
2022-09-15T09:58:20.905Z,21.48
2022-09-15T10:01:11.945Z,16.95
2022-09-15T10:04:19.188Z,16.45
2022-09-15T10:07:10.036Z,15.75
2022-09-15T10:10:00.942Z,15.55
2022-09-15T10:12:50.486Z,16.10
2022-09-15T10:15:45.171Z,16.40
2022-09-15T10:18:35.467Z,16.52
2022-09-15T10:21:29.670Z,16.52
2022-09-15T10:24:36.267Z,16.05
2022-09-15T10:27:31.678Z,16.27
2022-09-15T10:30:20.854Z,17.13
2022-09-15T10:33:20.924Z,17.63
2022-09-15T10:36:15.217Z,18.42
2022-09-15T10:39:12.051Z,19.42
2022-09-15T10:42:14.043Z,20.70
2022-09-15T10:45:16.067Z,22.23
2022-09-15T10:48:25.581Z,24.20
2022-09-15T10:51:33.542Z,25.35
2022-09-15T10:54:45.487Z,26.45
2022-09-15T10:57:55.509Z,27.48
2022-09-15T11:00:56.203Z,27.60
2022-09-15T11:04:30.510Z,28.20
2022-09-15T11:07:30.392Z,30.20
2022-09-15T11:10:27.023Z,30.73
2022-09-15T11:13:27.371Z,30.90
2022-09-15T11:16:29.509Z,32.95
2022-09-15T11:19:33.794Z,31.63
2022-09-15T11:22:27.265Z,29.95
2022-09-15T11:25:20.703Z,28.33
2022-09-15T11:28:19.221Z,26.35
2022-09-15T11:31:16.513Z,28.35
2022-09-15T11:34:12.761Z,28.52
2022-09-15T11:37:07.307Z,30.13
2022-09-15T11:40:01.101Z,28.73
2022-09-15T11:42:54.555Z,26.00
2022-09-15T11:45:49.802Z,24.10
2022-09-15T11:48:46.197Z,23.92
2022-09-15T11:51:41.771Z,24.58
2022-09-15T11:54:37.555Z,23.17
2022-09-15T11:57:31.745Z,19.80
2022-09-15T12:00:21.664Z,17.70
2022-09-15T12:03:19.367Z,16.70
2022-09-15T12:06:16.301Z,13.52
2022-09-15T12:09:06.773Z,11.32
2022-09-15T12:11:59.621Z,10.65
2022-09-15T12:14:50.393Z,10.38
2022-09-15T12:17:46.560Z,9.35
2022-09-15T12:20:40.874Z,9.98
2022-09-15T12:23:35.098Z,9.20
2022-09-15T12:26:26.239Z,9.95
2022-09-15T12:29:42.483Z,9.68
2022-09-15T12:32:33.292Z,10.18
2022-09-15T12:35:33.313Z,10.82
2022-09-15T12:38:24.288Z,10.90
2022-09-15T12:41:14.258Z,11.18
2022-09-15T12:44:21.140Z,11.20
2022-09-15T12:47:21.983Z,11.50
2022-09-15T12:50:25.298Z,12.60
2022-09-15T12:53:20.266Z,12.73
2022-09-15T12:56:12.050Z,12.70
2022-09-15T12:59:08.078Z,13.40
2022-09-15T13:01:57.683Z,13.90
2022-09-15T13:04:55.501Z,14.38
2022-09-15T13:08:01.648Z,13.55
2022-09-15T13:11:02.995Z,14.02
2022-09-15T13:13:54.471Z,14.38
2022-09-15T13:16:51.822Z,14.90
2022-09-15T13:19:46.751Z,14.70
2022-09-15T13:22:38.511Z,14.95
2022-09-15T13:25:30.364Z,15.50
2022-09-15T13:28:19.017Z,16.05
2022-09-15T13:31:22.172Z,16.02
2022-09-15T13:35:04.317Z,16.58
2022-09-15T13:38:26.473Z,16.45
2022-09-15T13:41:46.265Z,16.00
2022-09-15T13:45:17.566Z,15.82
2022-09-15T13:48:24.172Z,16.40
2022-09-15T13:51:20.672Z,16.40
2022-09-15T13:54:18.972Z,17.27
2022-09-15T13:57:07.328Z,18.80
2022-09-15T13:59:58.504Z,18.15
2022-09-15T14:02:49.928Z,18.63
2022-09-15T14:05:38.666Z,18.73
2022-09-15T14:08:35.053Z,19.75
2022-09-15T14:11:27.704Z,19.10
2022-09-15T14:14:35.586Z,18.10
2022-09-15T14:17:25.438Z,16.88
2022-09-15T14:20:26.171Z,16.17
2022-09-15T14:23:17.387Z,16.83
2022-09-15T14:26:14.857Z,17.20
2022-09-15T14:29:05.573Z,17.17
2022-09-15T14:31:55.096Z,16.23
2022-09-15T14:34:54.218Z,16.67
2022-09-15T14:37:42.539Z,16.45
2022-09-15T14:40:33.646Z,18.10
2022-09-15T14:43:33.117Z,18.20
2022-09-15T14:46:21.477Z,19.20
2022-09-15T14:49:16.829Z,19.63
2022-09-15T14:52:05.594Z,19.75
2022-09-15T14:55:04.999Z,20.30
2022-09-15T14:57:58.693Z,20.70
2022-09-15T15:01:13.745Z,19.92
2022-09-15T15:04:17.060Z,20.95
2022-09-15T15:07:15.058Z,21.50
2022-09-15T15:10:07.168Z,22.42
2022-09-15T15:12:59.860Z,23.10
2022-09-15T15:15:48.744Z,22.98
2022-09-15T15:18:43.330Z,24.13
2022-09-15T15:21:37.677Z,23.77
2022-09-15T15:24:26.182Z,24.30
2022-09-15T15:27:41.876Z,24.25
2022-09-15T15:30:36.309Z,26.38
2022-09-15T15:33:28.536Z,26.42
2022-09-15T15:36:22.813Z,27.63
2022-09-15T15:39:25.599Z,29.25
2022-09-15T15:42:16.773Z,32.17
2022-09-15T15:45:23.781Z,32.90
2022-09-15T15:48:12.111Z,34.70
2022-09-15T15:51:09.781Z,36.58
2022-09-15T15:53:59.604Z,39.10
2022-09-15T15:56:56.822Z,39.40
2022-09-15T15:59:48.175Z,41.95
2022-09-15T16:02:36.831Z,43.20
2022-09-15T16:05:31.560Z,45.80
2022-09-15T16:08:25.638Z,48.28
2022-09-15T16:11:17.075Z,48.42
2022-09-15T16:14:05.456Z,51.58
2022-09-15T16:16:59.937Z,54.35
2022-09-15T16:19:48.868Z,55.63
2022-09-15T16:22:43.692Z,58.30
2022-09-15T16:25:43.031Z,59.97
2022-09-15T16:28:33.132Z,63.13
2022-09-15T16:31:30.447Z,64.90
2022-09-15T16:34:19.548Z,66.60
2022-09-15T16:37:16.947Z,68.32
2022-09-15T16:40:06.606Z,67.75
2022-09-15T16:43:01.591Z,68.57
2022-09-15T16:45:52.675Z,69.28
2022-09-15T16:48:42.838Z,70.63
2022-09-15T16:51:40.121Z,71.90
2022-09-15T16:54:28.605Z,72.65
2022-09-15T16:57:25.845Z,73.63
2022-09-15T17:00:15.529Z,74.63
2022-09-15T17:03:18.273Z,77.68
2022-09-15T17:06:07.479Z,80.95
2022-09-15T17:08:55.772Z,78.18
2022-09-15T17:11:44.015Z,79.78
2022-09-15T17:14:32.275Z,79.32
2022-09-15T17:17:26.708Z,76.47
2022-09-15T17:20:17.868Z,77.43
2022-09-15T17:23:17.469Z,81.72
2022-09-15T17:26:07.882Z,85.13
2022-09-15T17:29:02.298Z,82.68
2022-09-15T17:31:50.680Z,82.75
2022-09-15T17:34:45.126Z,83.05
2022-09-15T17:37:35.086Z,83.57
2022-09-15T17:40:30.455Z,83.73
2022-09-15T17:43:20.591Z,81.50
2022-09-15T17:46:09.166Z,80.63
2022-09-15T17:48:57.697Z,81.53
2022-09-15T17:51:46.098Z,84.20
2022-09-15T17:54:45.271Z,85.05
2022-09-15T17:57:33.574Z,84.70
2022-09-15T18:00:33.462Z,82.77
2022-09-15T18:03:27.025Z,77.10
2022-09-15T18:06:15.447Z,77.47
2022-09-15T18:09:09.997Z,80.17
2022-09-15T18:12:00.200Z,81.60
2022-09-15T18:14:54.335Z,80.10
2022-09-15T18:17:43.613Z,81.20
2022-09-15T18:20:34.166Z,80.53
2022-09-15T18:23:24.739Z,79.57
2022-09-15T18:26:13.122Z,78.40
2022-09-15T18:29:03.610Z,74.93
2022-09-15T18:31:53.187Z,73.17
2022-09-15T18:34:41.686Z,70.40
2022-09-15T18:37:36.968Z,69.63
2022-09-15T18:40:26.456Z,68.03
2022-09-15T18:43:26.576Z,67.50
2022-09-15T18:46:17.523Z,66.57
2022-09-15T18:49:09.598Z,64.73
2022-09-15T18:51:59.346Z,63.10
2022-09-15T18:54:54.173Z,62.20
2022-09-15T18:57:43.119Z,60.93
2022-09-15T19:00:37.740Z,60.47
2022-09-15T19:03:27.556Z,58.03
2022-09-15T19:06:22.271Z,56.43
2022-09-15T19:09:11.091Z,57.83
2022-09-15T19:11:59.410Z,58.57
2022-09-15T19:14:48.506Z,60.60
2022-09-15T19:17:38.371Z,62.10
2022-09-15T19:20:28.067Z,63.97
2022-09-15T19:23:22.180Z,64.40
2022-09-15T19:26:13.921Z,64.33
2022-09-15T19:29:03.387Z,65.03
2022-09-15T19:32:00.748Z,64.67
2022-09-15T19:34:49.395Z,66.70
2022-09-15T19:37:48.776Z,68.47
2022-09-15T19:40:37.157Z,71.73
2022-09-15T19:43:25.625Z,73.50
2022-09-15T19:46:15.382Z,75.07
2022-09-15T19:49:04.484Z,77.20
2022-09-15T19:51:55.608Z,78.77
2022-09-15T19:54:54.332Z,78.33
2022-09-15T19:57:43.688Z,82.40
2022-09-15T20:00:40.959Z,83.47
2022-09-15T20:03:30.155Z,82.47
2022-09-15T20:06:19.066Z,83.53
2022-09-15T20:09:08.806Z,83.77
2022-09-15T20:12:03.771Z,84.73
2022-09-15T20:14:53.407Z,85.27
2022-09-15T20:17:51.762Z,87.07
2022-09-15T20:20:41.832Z,90.53
2022-09-15T20:23:36.859Z,90.10
2022-09-15T20:26:26.756Z,90.70
2022-09-15T20:29:19.010Z,89.53
2022-09-15T20:32:07.773Z,89.97
2022-09-15T20:34:57.410Z,89.10
2022-09-15T20:37:46.626Z,90.77
2022-09-15T20:40:35.397Z,90.50
2022-09-15T20:43:33.363Z,91.43
2022-09-15T20:46:24.735Z,91.87
2022-09-15T20:49:14.393Z,91.47
2022-09-15T20:52:03.877Z,92.47
2022-09-15T20:54:53.002Z,93.07
2022-09-15T20:57:41.740Z,96.60
2022-09-15T21:00:33.803Z,98.73
2022-09-15T21:03:24.427Z,99.97
2022-09-15T21:06:24.191Z,98.93
2022-09-15T21:09:12.819Z,98.70
2022-09-15T21:12:10.617Z,99.87
2022-09-15T21:14:59.323Z,101.13
2022-09-15T21:17:47.993Z,98.17
2022-09-15T21:20:38.283Z,97.10
2022-09-15T21:23:37.953Z,97.27
2022-09-15T21:26:28.055Z,98.27
2022-09-15T21:29:26.507Z,98.53
2022-09-15T21:32:15.304Z,99.20
2022-09-15T21:35:12.884Z,96.93
2022-09-15T21:38:02.943Z,98.33
2022-09-15T21:40:51.571Z,98.37
2022-09-15T21:43:50.355Z,98.37
2022-09-15T21:46:39.003Z,99.77
2022-09-15T21:49:27.650Z,98.73
2022-09-15T21:52:16.275Z,98.43
2022-09-15T21:55:15.515Z,99.53
2022-09-15T21:58:04.238Z,100.70
2022-09-15T22:01:10.872Z,99.77
2022-09-15T22:04:01.488Z,101.60
2022-09-15T22:06:50.398Z,100.67
2022-09-15T22:09:44.855Z,100.43
2022-09-15T22:12:34.940Z,100.80
2022-09-15T22:15:29.876Z,99.87
2022-09-15T22:18:18.632Z,102.67
2022-09-15T22:21:09.954Z,100.63
2022-09-15T22:23:59.735Z,102.77
2022-09-15T22:26:54.607Z,99.50
2022-09-15T22:29:44.710Z,101.03
2022-09-15T22:32:39.877Z,101.93
2022-09-15T22:35:28.628Z,100.40
2022-09-15T22:38:17.350Z,100.07
2022-09-15T22:41:07.288Z,99.77
2022-09-15T22:44:05.855Z,101.47
2022-09-15T22:46:57.781Z,99.23
2022-09-15T22:49:46.506Z,95.97
2022-09-15T22:52:41.083Z,95.77
2022-09-15T22:55:31.470Z,94.87
2022-09-15T22:58:26.012Z,94.20
2022-09-15T23:01:17.017Z,92.87
2022-09-15T23:04:06.787Z,91.80
2022-09-15T23:07:04.497Z,90.40
2022-09-15T23:09:52.825Z,91.80
2022-09-15T23:12:50.091Z,90.00
2022-09-15T23:15:38.337Z,89.20
2022-09-15T23:18:35.820Z,90.17
2022-09-15T23:21:26.029Z,89.43
2022-09-15T23:24:23.989Z,88.33
2022-09-15T23:27:12.283Z,88.53
2022-09-15T23:30:10.724Z,89.53
2022-09-15T23:32:59.001Z,89.60
2022-09-15T23:35:56.365Z,89.63
2022-09-15T23:38:47.153Z,89.40
2022-09-15T23:41:36.856Z,86.03
2022-09-15T23:44:33.868Z,87.57
2022-09-15T23:47:22.205Z,87.03
2022-09-15T23:50:19.555Z,85.27
2022-09-15T23:53:08.159Z,87.23
2022-09-15T23:56:07.571Z,85.50
2022-09-15T23:58:55.951Z,85.93
